sensor_id;sensor_type;location;lat;lon;timestamp;P1;durP1;ratioP1;P2;durP2;ratioP2
64857;SDS011;51335;51.148;6.950;2024-03-06T00:00:15;32.47;;;19.40;;
64857;SDS011;51335;51.148;6.950;2024-03-06T00:00:45;30.75;;;18.40;;
64857;SDS011;51335;51.148;6.950;2024-03-06T00:01:15;29.65;;;18.10;;
64857;SDS011;51335;51.148;6.950;2024-03-06T00:01:46;33.08;;;17.98;;
64857;SDS011;51335;51.148;6.950;2024-03-06T00:02:16;33.10;;;18.90;;
64857;SDS011;51335;51.148;6.950;2024-03-06T00:02:46;31.10;;;19.05;;
64857;SDS011;51335;51.148;6.950;2024-03-06T00:03:16;31.52;;;19.05;;
64857;SDS011;51335;51.148;6.950;2024-03-06T00:03:47;36.65;;;19.73;;
64857;SDS011;51335;51.148;6.950;2024-03-06T00:04:17;32.85;;;19.17;;
64857;SDS011;51335;51.148;6.950;2024-03-06T00:04:47;30.05;;;18.90;;
64857;SDS011;51335;51.148;6.950;2024-03-06T00:05:17;31.15;;;19.05;;
64857;SDS011;51335;51.148;6.950;2024-03-06T00:05:48;30.35;;;18.20;;
64857;SDS011;51335;51.148;6.950;2024-03-06T00:06:18;32.95;;;19.00;;
64857;SDS011;51335;51.148;6.950;2024-03-06T00:06:48;34.33;;;19.60;;
64857;SDS011;51335;51.148;6.950;2024-03-06T00:07:19;32.10;;;18.15;;
64857;SDS011;51335;51.148;6.950;2024-03-06T00:07:49;31.13;;;18.88;;
64857;SDS011;51335;51.148;6.950;2024-03-06T00:08:19;31.00;;;18.98;;
64857;SDS011;51335;51.148;6.950;2024-03-06T00:08:50;32.08;;;19.33;;
64857;SDS011;51335;51.148;6.950;2024-03-06T00:09:20;30.58;;;19.25;;
64857;SDS011;51335;51.148;6.950;2024-03-06T00:09:51;29.85;;;18.02;;
64857;SDS011;51335;51.148;6.950;2024-03-06T00:10:21;30.05;;;18.23;;
64857;SDS011;51335;51.148;6.950;2024-03-06T00:10:51;34.22;;;19.27;;
64857;SDS011;51335;51.148;6.950;2024-03-06T00:11:21;29.42;;;17.98;;
64857;SDS011;51335;51.148;6.950;2024-03-06T00:11:52;31.83;;;18.00;;
64857;SDS011;51335;51.148;6.950;2024-03-06T00:12:23;28.48;;;17.25;;
64857;SDS011;51335;51.148;6.950;2024-03-06T00:12:53;32.15;;;19.38;;
64857;SDS011;51335;51.148;6.950;2024-03-06T00:13:23;34.47;;;18.80;;
64857;SDS011;51335;51.148;6.950;2024-03-06T00:13:54;30.08;;;18.42;;
64857;SDS011;51335;51.148;6.950;2024-03-06T00:14:24;29.73;;;18.38;;
64857;SDS011;51335;51.148;6.950;2024-03-06T00:14:54;30.88;;;18.05;;
64857;SDS011;51335;51.148;6.950;2024-03-06T00:15:25;31.23;;;18.67;;
64857;SDS011;51335;51.148;6.950;2024-03-06T00:15:55;31.35;;;18.13;;
64857;SDS011;51335;51.148;6.950;2024-03-06T00:16:25;33.33;;;20.08;;
64857;SDS011;51335;51.148;6.950;2024-03-06T00:16:55;31.15;;;19.50;;
64857;SDS011;51335;51.148;6.950;2024-03-06T00:17:26;30.33;;;18.33;;
64857;SDS011;51335;51.148;6.950;2024-03-06T00:17:56;30.05;;;18.10;;
64857;SDS011;51335;51.148;6.950;2024-03-06T00:18:26;29.98;;;17.60;;
64857;SDS011;51335;51.148;6.950;2024-03-06T00:18:56;33.90;;;17.90;;
64857;SDS011;51335;51.148;6.950;2024-03-06T00:19:27;31.77;;;18.80;;
64857;SDS011;51335;51.148;6.950;2024-03-06T00:19:57;29.52;;;17.80;;
64857;SDS011;51335;51.148;6.950;2024-03-06T00:20:27;33.70;;;19.25;;
64857;SDS011;51335;51.148;6.950;2024-03-06T00:20:58;36.28;;;19.20;;
64857;SDS011;51335;51.148;6.950;2024-03-06T00:21:28;30.85;;;17.45;;
64857;SDS011;51335;51.148;6.950;2024-03-06T00:21:59;31.67;;;18.65;;
64857;SDS011;51335;51.148;6.950;2024-03-06T00:22:30;32.65;;;19.95;;
64857;SDS011;51335;51.148;6.950;2024-03-06T00:23:00;34.47;;;19.77;;
64857;SDS011;51335;51.148;6.950;2024-03-06T00:23:30;38.10;;;20.13;;
64857;SDS011;51335;51.148;6.950;2024-03-06T00:24:00;36.60;;;20.80;;
64857;SDS011;51335;51.148;6.950;2024-03-06T00:24:31;34.60;;;19.58;;
64857;SDS011;51335;51.148;6.950;2024-03-06T00:25:01;33.70;;;19.70;;
64857;SDS011;51335;51.148;6.950;2024-03-06T00:25:32;36.25;;;19.15;;
64857;SDS011;51335;51.148;6.950;2024-03-06T00:26:02;34.97;;;19.85;;
64857;SDS011;51335;51.148;6.950;2024-03-06T00:26:33;28.75;;;17.80;;
64857;SDS011;51335;51.148;6.950;2024-03-06T00:27:03;31.83;;;18.40;;
64857;SDS011;51335;51.148;6.950;2024-03-06T00:27:33;31.45;;;19.10;;
64857;SDS011;51335;51.148;6.950;2024-03-06T00:28:04;35.40;;;19.85;;
64857;SDS011;51335;51.148;6.950;2024-03-06T00:28:34;34.78;;;19.55;;
64857;SDS011;51335;51.148;6.950;2024-03-06T00:29:05;32.00;;;18.50;;
64857;SDS011;51335;51.148;6.950;2024-03-06T00:29:35;33.25;;;19.10;;
64857;SDS011;51335;51.148;6.950;2024-03-06T00:30:05;31.05;;;19.38;;
64857;SDS011;51335;51.148;6.950;2024-03-06T00:30:36;33.55;;;19.38;;
64857;SDS011;51335;51.148;6.950;2024-03-06T00:31:06;32.20;;;19.08;;
64857;SDS011;51335;51.148;6.950;2024-03-06T00:31:41;32.45;;;18.85;;
64857;SDS011;51335;51.148;6.950;2024-03-06T00:32:12;27.27;;;17.48;;
64857;SDS011;51335;51.148;6.950;2024-03-06T00:32:42;28.20;;;17.75;;
64857;SDS011;51335;51.148;6.950;2024-03-06T00:33:13;26.95;;;17.10;;
64857;SDS011;51335;51.148;6.950;2024-03-06T00:33:43;31.13;;;17.70;;
64857;SDS011;51335;51.148;6.950;2024-03-06T00:34:13;28.80;;;18.25;;
64857;SDS011;51335;51.148;6.950;2024-03-06T00:34:43;28.83;;;17.55;;
64857;SDS011;51335;51.148;6.950;2024-03-06T00:35:14;30.70;;;19.35;;
64857;SDS011;51335;51.148;6.950;2024-03-06T00:35:44;28.25;;;17.38;;
64857;SDS011;51335;51.148;6.950;2024-03-06T00:36:14;29.23;;;17.85;;
64857;SDS011;51335;51.148;6.950;2024-03-06T00:36:44;28.30;;;17.23;;
64857;SDS011;51335;51.148;6.950;2024-03-06T00:37:15;28.30;;;18.00;;
64857;SDS011;51335;51.148;6.950;2024-03-06T00:37:45;28.23;;;17.60;;
64857;SDS011;51335;51.148;6.950;2024-03-06T00:38:15;29.52;;;17.67;;
64857;SDS011;51335;51.148;6.950;2024-03-06T00:38:46;32.92;;;18.85;;
64857;SDS011;51335;51.148;6.950;2024-03-06T00:39:16;29.35;;;17.77;;
64857;SDS011;51335;51.148;6.950;2024-03-06T00:39:46;28.95;;;16.85;;
64857;SDS011;51335;51.148;6.950;2024-03-06T00:40:16;26.00;;;16.50;;
64857;SDS011;51335;51.148;6.950;2024-03-06T00:40:47;29.80;;;17.33;;
64857;SDS011;51335;51.148;6.950;2024-03-06T00:41:17;28.17;;;16.67;;
64857;SDS011;51335;51.148;6.950;2024-03-06T00:41:47;30.13;;;16.67;;
64857;SDS011;51335;51.148;6.950;2024-03-06T00:42:17;27.33;;;17.02;;
64857;SDS011;51335;51.148;6.950;2024-03-06T00:42:48;28.92;;;17.15;;
64857;SDS011;51335;51.148;6.950;2024-03-06T00:43:18;27.77;;;16.02;;
64857;SDS011;51335;51.148;6.950;2024-03-06T00:43:48;33.33;;;18.70;;
64857;SDS011;51335;51.148;6.950;2024-03-06T00:44:18;28.08;;;17.35;;
64857;SDS011;51335;51.148;6.950;2024-03-06T00:44:49;28.50;;;18.05;;
64857;SDS011;51335;51.148;6.950;2024-03-06T00:45:19;30.35;;;17.50;;
64857;SDS011;51335;51.148;6.950;2024-03-06T00:45:49;26.88;;;16.50;;
64857;SDS011;51335;51.148;6.950;2024-03-06T00:46:19;27.65;;;17.35;;
64857;SDS011;51335;51.148;6.950;2024-03-06T00:46:50;29.05;;;17.83;;
64857;SDS011;51335;51.148;6.950;2024-03-06T00:47:20;31.52;;;17.13;;
64857;SDS011;51335;51.148;6.950;2024-03-06T00:47:50;27.50;;;17.30;;
64857;SDS011;51335;51.148;6.950;2024-03-06T00:48:20;26.52;;;16.17;;
64857;SDS011;51335;51.148;6.950;2024-03-06T00:48:51;27.58;;;16.98;;
64857;SDS011;51335;51.148;6.950;2024-03-06T00:49:21;28.60;;;17.67;;
64857;SDS011;51335;51.148;6.950;2024-03-06T00:49:51;29.67;;;17.38;;
64857;SDS011;51335;51.148;6.950;2024-03-06T00:50:21;28.73;;;17.88;;
64857;SDS011;51335;51.148;6.950;2024-03-06T00:50:52;26.40;;;16.40;;
64857;SDS011;51335;51.148;6.950;2024-03-06T00:51:23;28.67;;;17.75;;
64857;SDS011;51335;51.148;6.950;2024-03-06T00:51:53;29.33;;;16.83;;
64857;SDS011;51335;51.148;6.950;2024-03-06T00:52:23;31.80;;;18.38;;
64857;SDS011;51335;51.148;6.950;2024-03-06T00:52:53;32.55;;;18.35;;
64857;SDS011;51335;51.148;6.950;2024-03-06T00:53:24;29.13;;;17.63;;
64857;SDS011;51335;51.148;6.950;2024-03-06T00:53:54;32.60;;;17.77;;
64857;SDS011;51335;51.148;6.950;2024-03-06T00:54:24;28.88;;;17.73;;
64857;SDS011;51335;51.148;6.950;2024-03-06T00:54:54;27.55;;;17.25;;
64857;SDS011;51335;51.148;6.950;2024-03-06T00:55:25;29.67;;;17.55;;
64857;SDS011;51335;51.148;6.950;2024-03-06T00:55:55;30.38;;;16.95;;
64857;SDS011;51335;51.148;6.950;2024-03-06T00:56:25;27.05;;;17.40;;
64857;SDS011;51335;51.148;6.950;2024-03-06T00:56:55;26.77;;;16.75;;
64857;SDS011;51335;51.148;6.950;2024-03-06T00:57:26;29.10;;;17.73;;
64857;SDS011;51335;51.148;6.950;2024-03-06T00:57:57;30.70;;;17.98;;
64857;SDS011;51335;51.148;6.950;2024-03-06T00:58:27;30.25;;;17.58;;
64857;SDS011;51335;51.148;6.950;2024-03-06T00:58:57;31.88;;;17.67;;
64857;SDS011;51335;51.148;6.950;2024-03-06T00:59:27;27.85;;;16.35;;
64857;SDS011;51335;51.148;6.950;2024-03-06T00:59:58;30.17;;;17.30;;
64857;SDS011;51335;51.148;6.950;2024-03-06T01:00:29;28.75;;;17.58;;
64857;SDS011;51335;51.148;6.950;2024-03-06T01:01:00;28.67;;;17.17;;
64857;SDS011;51335;51.148;6.950;2024-03-06T01:01:30;29.42;;;18.08;;
64857;SDS011;51335;51.148;6.950;2024-03-06T01:02:00;29.02;;;18.23;;
64857;SDS011;51335;51.148;6.950;2024-03-06T01:02:31;31.05;;;17.23;;
64857;SDS011;51335;51.148;6.950;2024-03-06T01:03:01;30.08;;;17.45;;
64857;SDS011;51335;51.148;6.950;2024-03-06T01:03:31;31.38;;;18.60;;
64857;SDS011;51335;51.148;6.950;2024-03-06T01:04:01;31.75;;;18.27;;
64857;SDS011;51335;51.148;6.950;2024-03-06T01:04:32;31.17;;;18.02;;
64857;SDS011;51335;51.148;6.950;2024-03-06T01:05:02;29.00;;;17.70;;
64857;SDS011;51335;51.148;6.950;2024-03-06T01:05:33;28.73;;;17.63;;
64857;SDS011;51335;51.148;6.950;2024-03-06T01:06:03;32.72;;;19.40;;
64857;SDS011;51335;51.148;6.950;2024-03-06T01:06:33;32.30;;;18.52;;
64857;SDS011;51335;51.148;6.950;2024-03-06T01:07:04;31.30;;;18.48;;
64857;SDS011;51335;51.148;6.950;2024-03-06T01:07:34;29.20;;;17.23;;
64857;SDS011;51335;51.148;6.950;2024-03-06T01:08:07;30.92;;;18.60;;
64857;SDS011;51335;51.148;6.950;2024-03-06T01:08:37;30.75;;;18.20;;
64857;SDS011;51335;51.148;6.950;2024-03-06T01:09:07;32.63;;;18.00;;
64857;SDS011;51335;51.148;6.950;2024-03-06T01:09:38;34.13;;;18.42;;
64857;SDS011;51335;51.148;6.950;2024-03-06T01:10:08;30.10;;;18.00;;
64857;SDS011;51335;51.148;6.950;2024-03-06T01:10:39;32.47;;;18.77;;
64857;SDS011;51335;51.148;6.950;2024-03-06T01:11:09;30.05;;;17.67;;
64857;SDS011;51335;51.148;6.950;2024-03-06T01:11:42;28.33;;;17.60;;
64857;SDS011;51335;51.148;6.950;2024-03-06T01:12:12;27.70;;;16.98;;
64857;SDS011;51335;51.148;6.950;2024-03-06T01:12:42;34.22;;;17.52;;
64857;SDS011;51335;51.148;6.950;2024-03-06T01:13:12;31.00;;;18.17;;
64857;SDS011;51335;51.148;6.950;2024-03-06T01:13:43;31.30;;;18.70;;
64857;SDS011;51335;51.148;6.950;2024-03-06T01:14:13;29.48;;;18.15;;
64857;SDS011;51335;51.148;6.950;2024-03-06T01:14:43;32.80;;;19.42;;
64857;SDS011;51335;51.148;6.950;2024-03-06T01:15:13;33.25;;;19.23;;
64857;SDS011;51335;51.148;6.950;2024-03-06T01:15:44;30.40;;;18.65;;
64857;SDS011;51335;51.148;6.950;2024-03-06T01:16:14;29.52;;;17.55;;
64857;SDS011;51335;51.148;6.950;2024-03-06T01:16:44;29.77;;;17.52;;
64857;SDS011;51335;51.148;6.950;2024-03-06T01:17:15;30.25;;;17.73;;
64857;SDS011;51335;51.148;6.950;2024-03-06T01:17:45;25.98;;;16.70;;
64857;SDS011;51335;51.148;6.950;2024-03-06T01:18:15;29.98;;;18.02;;
64857;SDS011;51335;51.148;6.950;2024-03-06T01:18:45;30.98;;;16.70;;
64857;SDS011;51335;51.148;6.950;2024-03-06T01:19:16;27.80;;;17.15;;
64857;SDS011;51335;51.148;6.950;2024-03-06T01:19:46;25.33;;;15.90;;
64857;SDS011;51335;51.148;6.950;2024-03-06T01:20:16;30.67;;;16.95;;
64857;SDS011;51335;51.148;6.950;2024-03-06T01:20:46;27.70;;;16.17;;
64857;SDS011;51335;51.148;6.950;2024-03-06T01:21:17;27.13;;;16.45;;
64857;SDS011;51335;51.148;6.950;2024-03-06T01:21:47;31.50;;;16.15;;
64857;SDS011;51335;51.148;6.950;2024-03-06T01:22:17;31.92;;;16.50;;
64857;SDS011;51335;51.148;6.950;2024-03-06T01:22:48;25.13;;;15.57;;
64857;SDS011;51335;51.148;6.950;2024-03-06T01:23:18;27.77;;;15.93;;
64857;SDS011;51335;51.148;6.950;2024-03-06T01:23:48;30.25;;;16.90;;
64857;SDS011;51335;51.148;6.950;2024-03-06T01:24:19;28.52;;;15.50;;
64857;SDS011;51335;51.148;6.950;2024-03-06T01:24:49;28.65;;;16.60;;
64857;SDS011;51335;51.148;6.950;2024-03-06T01:25:19;28.52;;;16.00;;
64857;SDS011;51335;51.148;6.950;2024-03-06T01:25:50;30.48;;;17.00;;
64857;SDS011;51335;51.148;6.950;2024-03-06T01:26:20;35.67;;;18.25;;
64857;SDS011;51335;51.148;6.950;2024-03-06T01:26:50;31.67;;;17.65;;
64857;SDS011;51335;51.148;6.950;2024-03-06T01:27:20;38.30;;;19.48;;
64857;SDS011;51335;51.148;6.950;2024-03-06T01:27:51;30.90;;;17.52;;
64857;SDS011;51335;51.148;6.950;2024-03-06T01:28:21;31.98;;;18.55;;
64857;SDS011;51335;51.148;6.950;2024-03-06T01:28:51;33.63;;;17.80;;
64857;SDS011;51335;51.148;6.950;2024-03-06T01:29:21;33.80;;;18.38;;
64857;SDS011;51335;51.148;6.950;2024-03-06T01:29:52;32.60;;;18.55;;
64857;SDS011;51335;51.148;6.950;2024-03-06T01:30:22;32.85;;;17.98;;
64857;SDS011;51335;51.148;6.950;2024-03-06T01:30:52;37.30;;;19.02;;
64857;SDS011;51335;51.148;6.950;2024-03-06T01:31:22;35.83;;;19.30;;
64857;SDS011;51335;51.148;6.950;2024-03-06T01:31:53;37.25;;;18.83;;
64857;SDS011;51335;51.148;6.950;2024-03-06T01:32:23;33.90;;;18.92;;
64857;SDS011;51335;51.148;6.950;2024-03-06T01:32:53;36.17;;;19.05;;
64857;SDS011;51335;51.148;6.950;2024-03-06T01:33:23;40.67;;;19.98;;
64857;SDS011;51335;51.148;6.950;2024-03-06T01:33:54;38.33;;;20.67;;
64857;SDS011;51335;51.148;6.950;2024-03-06T01:34:24;36.88;;;19.88;;
64857;SDS011;51335;51.148;6.950;2024-03-06T01:34:55;38.88;;;19.45;;
64857;SDS011;51335;51.148;6.950;2024-03-06T01:35:25;37.67;;;19.40;;
64857;SDS011;51335;51.148;6.950;2024-03-06T01:35:55;36.08;;;19.45;;
64857;SDS011;51335;51.148;6.950;2024-03-06T01:36:26;34.35;;;18.83;;
64857;SDS011;51335;51.148;6.950;2024-03-06T01:36:56;34.70;;;18.63;;
64857;SDS011;51335;51.148;6.950;2024-03-06T01:37:26;36.17;;;19.40;;
64857;SDS011;51335;51.148;6.950;2024-03-06T01:37:56;37.58;;;19.38;;
64857;SDS011;51335;51.148;6.950;2024-03-06T01:38:27;34.90;;;19.55;;
64857;SDS011;51335;51.148;6.950;2024-03-06T01:38:57;35.15;;;18.80;;
64857;SDS011;51335;51.148;6.950;2024-03-06T01:39:27;38.17;;;20.38;;
64857;SDS011;51335;51.148;6.950;2024-03-06T01:39:57;35.28;;;18.17;;
64857;SDS011;51335;51.148;6.950;2024-03-06T01:40:28;39.22;;;20.33;;
64857;SDS011;51335;51.148;6.950;2024-03-06T01:40:58;32.33;;;18.42;;
64857;SDS011;51335;51.148;6.950;2024-03-06T01:41:28;32.05;;;17.80;;
64857;SDS011;51335;51.148;6.950;2024-03-06T01:41:59;31.73;;;18.55;;
64857;SDS011;51335;51.148;6.950;2024-03-06T01:42:29;35.95;;;18.33;;
64857;SDS011;51335;51.148;6.950;2024-03-06T01:42:59;32.38;;;17.90;;
64857;SDS011;51335;51.148;6.950;2024-03-06T01:43:29;32.20;;;18.08;;
64857;SDS011;51335;51.148;6.950;2024-03-06T01:44:07;31.50;;;17.25;;
64857;SDS011;51335;51.148;6.950;2024-03-06T01:44:37;31.48;;;16.98;;
64857;SDS011;51335;51.148;6.950;2024-03-06T01:45:08;27.38;;;16.13;;
64857;SDS011;51335;51.148;6.950;2024-03-06T01:45:38;36.67;;;18.40;;
64857;SDS011;51335;51.148;6.950;2024-03-06T01:46:08;31.60;;;16.98;;
64857;SDS011;51335;51.148;6.950;2024-03-06T01:46:39;30.73;;;16.25;;
64857;SDS011;51335;51.148;6.950;2024-03-06T01:47:09;33.22;;;17.30;;
64857;SDS011;51335;51.148;6.950;2024-03-06T01:47:39;27.42;;;16.77;;
64857;SDS011;51335;51.148;6.950;2024-03-06T01:48:09;30.33;;;16.67;;
64857;SDS011;51335;51.148;6.950;2024-03-06T01:48:40;28.50;;;16.98;;
64857;SDS011;51335;51.148;6.950;2024-03-06T01:49:10;28.67;;;16.80;;
64857;SDS011;51335;51.148;6.950;2024-03-06T01:49:42;31.40;;;16.83;;
64857;SDS011;51335;51.148;6.950;2024-03-06T01:50:12;32.35;;;16.90;;
64857;SDS011;51335;51.148;6.950;2024-03-06T01:50:43;34.08;;;17.52;;
64857;SDS011;51335;51.148;6.950;2024-03-06T01:51:14;29.23;;;17.02;;
64857;SDS011;51335;51.148;6.950;2024-03-06T01:51:45;28.70;;;16.52;;
64857;SDS011;51335;51.148;6.950;2024-03-06T01:52:22;30.67;;;16.80;;
64857;SDS011;51335;51.148;6.950;2024-03-06T01:52:53;26.65;;;15.50;;
64857;SDS011;51335;51.148;6.950;2024-03-06T01:53:23;33.30;;;17.27;;
64857;SDS011;51335;51.148;6.950;2024-03-06T01:53:53;28.58;;;16.05;;
64857;SDS011;51335;51.148;6.950;2024-03-06T01:54:24;27.65;;;15.70;;
64857;SDS011;51335;51.148;6.950;2024-03-06T01:54:55;32.60;;;16.60;;
64857;SDS011;51335;51.148;6.950;2024-03-06T01:55:25;28.50;;;16.10;;
64857;SDS011;51335;51.148;6.950;2024-03-06T01:55:56;27.58;;;15.60;;
64857;SDS011;51335;51.148;6.950;2024-03-06T01:56:27;27.77;;;16.42;;
64857;SDS011;51335;51.148;6.950;2024-03-06T01:56:58;30.38;;;16.70;;
64857;SDS011;51335;51.148;6.950;2024-03-06T01:57:29;32.05;;;17.25;;
64857;SDS011;51335;51.148;6.950;2024-03-06T01:57:59;31.05;;;16.75;;
64857;SDS011;51335;51.148;6.950;2024-03-06T01:58:30;31.48;;;17.25;;
64857;SDS011;51335;51.148;6.950;2024-03-06T01:59:01;29.67;;;17.33;;
64857;SDS011;51335;51.148;6.950;2024-03-06T01:59:32;27.92;;;16.45;;
64857;SDS011;51335;51.148;6.950;2024-03-06T02:00:02;28.25;;;16.88;;
64857;SDS011;51335;51.148;6.950;2024-03-06T02:00:33;28.52;;;16.50;;
64857;SDS011;51335;51.148;6.950;2024-03-06T02:01:04;30.52;;;16.80;;
64857;SDS011;51335;51.148;6.950;2024-03-06T02:01:34;32.13;;;16.60;;
64857;SDS011;51335;51.148;6.950;2024-03-06T02:02:05;30.90;;;17.00;;
64857;SDS011;51335;51.148;6.950;2024-03-06T02:02:35;30.88;;;16.88;;
64857;SDS011;51335;51.148;6.950;2024-03-06T02:03:06;27.13;;;15.55;;
64857;SDS011;51335;51.148;6.950;2024-03-06T02:03:36;29.95;;;17.10;;
64857;SDS011;51335;51.148;6.950;2024-03-06T02:04:07;32.33;;;16.33;;
64857;SDS011;51335;51.148;6.950;2024-03-06T02:04:38;28.23;;;16.00;;
64857;SDS011;51335;51.148;6.950;2024-03-06T02:05:09;27.13;;;15.38;;
64857;SDS011;51335;51.148;6.950;2024-03-06T02:05:40;28.60;;;15.65;;
64857;SDS011;51335;51.148;6.950;2024-03-06T02:06:10;30.13;;;15.77;;
64857;SDS011;51335;51.148;6.950;2024-03-06T02:06:43;30.77;;;16.85;;
64857;SDS011;51335;51.148;6.950;2024-03-06T02:07:14;31.00;;;16.83;;
64857;SDS011;51335;51.148;6.950;2024-03-06T02:07:45;30.40;;;16.65;;
64857;SDS011;51335;51.148;6.950;2024-03-06T02:08:17;30.77;;;16.10;;
64857;SDS011;51335;51.148;6.950;2024-03-06T02:08:47;29.77;;;16.92;;
64857;SDS011;51335;51.148;6.950;2024-03-06T02:09:18;31.92;;;16.90;;
64857;SDS011;51335;51.148;6.950;2024-03-06T02:09:48;31.00;;;16.92;;
64857;SDS011;51335;51.148;6.950;2024-03-06T02:10:18;32.85;;;16.60;;
64857;SDS011;51335;51.148;6.950;2024-03-06T02:10:49;29.75;;;16.55;;
64857;SDS011;51335;51.148;6.950;2024-03-06T02:11:19;33.33;;;18.05;;
64857;SDS011;51335;51.148;6.950;2024-03-06T02:11:49;29.00;;;16.85;;
64857;SDS011;51335;51.148;6.950;2024-03-06T02:12:20;28.38;;;15.88;;
64857;SDS011;51335;51.148;6.950;2024-03-06T02:12:50;27.25;;;16.17;;
64857;SDS011;51335;51.148;6.950;2024-03-06T02:13:20;29.80;;;16.58;;
64857;SDS011;51335;51.148;6.950;2024-03-06T02:13:50;29.45;;;15.90;;
64857;SDS011;51335;51.148;6.950;2024-03-06T02:14:21;31.77;;;16.52;;
64857;SDS011;51335;51.148;6.950;2024-03-06T02:14:51;31.13;;;16.25;;
64857;SDS011;51335;51.148;6.950;2024-03-06T02:15:21;30.70;;;16.45;;
64857;SDS011;51335;51.148;6.950;2024-03-06T02:15:52;29.98;;;17.10;;
64857;SDS011;51335;51.148;6.950;2024-03-06T02:16:22;37.40;;;19.50;;
64857;SDS011;51335;51.148;6.950;2024-03-06T02:16:52;39.67;;;19.45;;
64857;SDS011;51335;51.148;6.950;2024-03-06T02:17:23;38.90;;;18.88;;
64857;SDS011;51335;51.148;6.950;2024-03-06T02:17:53;34.15;;;17.95;;
64857;SDS011;51335;51.148;6.950;2024-03-06T02:18:23;34.00;;;18.00;;
64857;SDS011;51335;51.148;6.950;2024-03-06T02:18:56;37.80;;;18.33;;
64857;SDS011;51335;51.148;6.950;2024-03-06T02:19:42;31.95;;;18.48;;
64857;SDS011;51335;51.148;6.950;2024-03-06T02:20:13;31.58;;;17.23;;
64857;SDS011;51335;51.148;6.950;2024-03-06T02:20:43;35.08;;;18.25;;
64857;SDS011;51335;51.148;6.950;2024-03-06T02:21:14;34.28;;;18.30;;
64857;SDS011;51335;51.148;6.950;2024-03-06T02:21:44;37.58;;;18.58;;
64857;SDS011;51335;51.148;6.950;2024-03-06T02:22:14;33.67;;;18.38;;
64857;SDS011;51335;51.148;6.950;2024-03-06T02:22:44;36.22;;;18.63;;
64857;SDS011;51335;51.148;6.950;2024-03-06T02:23:15;36.10;;;19.40;;
64857;SDS011;51335;51.148;6.950;2024-03-06T02:23:45;35.97;;;18.80;;
64857;SDS011;51335;51.148;6.950;2024-03-06T02:24:15;32.92;;;18.20;;
64857;SDS011;51335;51.148;6.950;2024-03-06T02:24:48;31.15;;;17.35;;
64857;SDS011;51335;51.148;6.950;2024-03-06T02:25:18;37.40;;;18.63;;
64857;SDS011;51335;51.148;6.950;2024-03-06T02:25:49;31.75;;;17.88;;
64857;SDS011;51335;51.148;6.950;2024-03-06T02:26:20;32.28;;;17.98;;
64857;SDS011;51335;51.148;6.950;2024-03-06T02:26:51;32.83;;;17.83;;
64857;SDS011;51335;51.148;6.950;2024-03-06T02:27:21;32.92;;;17.45;;
64857;SDS011;51335;51.148;6.950;2024-03-06T02:27:52;33.42;;;18.10;;
64857;SDS011;51335;51.148;6.950;2024-03-06T02:28:22;32.50;;;16.85;;
64857;SDS011;51335;51.148;6.950;2024-03-06T02:28:53;35.35;;;17.63;;
64857;SDS011;51335;51.148;6.950;2024-03-06T02:29:24;33.90;;;17.73;;
64857;SDS011;51335;51.148;6.950;2024-03-06T02:29:55;32.60;;;17.65;;
64857;SDS011;51335;51.148;6.950;2024-03-06T02:30:25;33.58;;;18.58;;
64857;SDS011;51335;51.148;6.950;2024-03-06T02:30:55;29.02;;;17.55;;
64857;SDS011;51335;51.148;6.950;2024-03-06T02:31:26;32.50;;;18.08;;
64857;SDS011;51335;51.148;6.950;2024-03-06T02:31:56;32.75;;;18.73;;
64857;SDS011;51335;51.148;6.950;2024-03-06T02:32:26;35.13;;;19.23;;
64857;SDS011;51335;51.148;6.950;2024-03-06T02:32:56;31.67;;;18.10;;
64857;SDS011;51335;51.148;6.950;2024-03-06T02:33:27;32.58;;;17.38;;
64857;SDS011;51335;51.148;6.950;2024-03-06T02:33:57;30.50;;;17.63;;
64857;SDS011;51335;51.148;6.950;2024-03-06T02:34:28;31.83;;;17.40;;
64857;SDS011;51335;51.148;6.950;2024-03-06T02:34:58;35.90;;;18.02;;
64857;SDS011;51335;51.148;6.950;2024-03-06T02:35:30;33.17;;;18.77;;
64857;SDS011;51335;51.148;6.950;2024-03-06T02:36:01;30.90;;;18.52;;
64857;SDS011;51335;51.148;6.950;2024-03-06T02:36:31;34.28;;;18.88;;
64857;SDS011;51335;51.148;6.950;2024-03-06T02:37:01;33.05;;;17.90;;
64857;SDS011;51335;51.148;6.950;2024-03-06T02:37:31;30.38;;;17.00;;
64857;SDS011;51335;51.148;6.950;2024-03-06T02:38:03;33.50;;;17.92;;
64857;SDS011;51335;51.148;6.950;2024-03-06T02:38:34;32.10;;;16.98;;
64857;SDS011;51335;51.148;6.950;2024-03-06T02:39:04;35.45;;;17.58;;
64857;SDS011;51335;51.148;6.950;2024-03-06T02:39:34;33.67;;;17.52;;
64857;SDS011;51335;51.148;6.950;2024-03-06T02:40:05;35.08;;;18.27;;
64857;SDS011;51335;51.148;6.950;2024-03-06T02:40:35;28.92;;;17.33;;
64857;SDS011;51335;51.148;6.950;2024-03-06T02:41:06;31.58;;;18.10;;
64857;SDS011;51335;51.148;6.950;2024-03-06T02:41:36;32.95;;;18.15;;
64857;SDS011;51335;51.148;6.950;2024-03-06T02:42:06;35.15;;;18.23;;
64857;SDS011;51335;51.148;6.950;2024-03-06T02:42:37;33.47;;;18.70;;
64857;SDS011;51335;51.148;6.950;2024-03-06T02:43:07;34.08;;;17.65;;
64857;SDS011;51335;51.148;6.950;2024-03-06T02:43:37;34.00;;;17.75;;
64857;SDS011;51335;51.148;6.950;2024-03-06T02:44:07;33.65;;;17.58;;
64857;SDS011;51335;51.148;6.950;2024-03-06T02:44:38;31.55;;;17.52;;
64857;SDS011;51335;51.148;6.950;2024-03-06T02:45:08;30.90;;;17.15;;
64857;SDS011;51335;51.148;6.950;2024-03-06T02:45:38;28.60;;;17.20;;
64857;SDS011;51335;51.148;6.950;2024-03-06T02:46:09;32.97;;;17.25;;
64857;SDS011;51335;51.148;6.950;2024-03-06T02:46:39;35.30;;;18.50;;
64857;SDS011;51335;51.148;6.950;2024-03-06T02:47:10;31.45;;;17.90;;
64857;SDS011;51335;51.148;6.950;2024-03-06T02:47:40;31.60;;;17.27;;
64857;SDS011;51335;51.148;6.950;2024-03-06T02:48:11;30.27;;;17.02;;
64857;SDS011;51335;51.148;6.950;2024-03-06T02:48:41;32.80;;;17.77;;
64857;SDS011;51335;51.148;6.950;2024-03-06T02:49:11;32.05;;;17.95;;
64857;SDS011;51335;51.148;6.950;2024-03-06T02:49:41;32.63;;;19.25;;
64857;SDS011;51335;51.148;6.950;2024-03-06T02:50:12;31.60;;;18.10;;
64857;SDS011;51335;51.148;6.950;2024-03-06T02:50:42;33.95;;;18.52;;
64857;SDS011;51335;51.148;6.950;2024-03-06T02:51:17;31.77;;;18.27;;
64857;SDS011;51335;51.148;6.950;2024-03-06T02:51:48;31.08;;;18.13;;
64857;SDS011;51335;51.148;6.950;2024-03-06T02:52:18;32.65;;;18.35;;
64857;SDS011;51335;51.148;6.950;2024-03-06T02:52:48;30.80;;;17.40;;
64857;SDS011;51335;51.148;6.950;2024-03-06T02:53:19;30.58;;;17.42;;
64857;SDS011;51335;51.148;6.950;2024-03-06T02:53:49;30.08;;;17.55;;
64857;SDS011;51335;51.148;6.950;2024-03-06T02:54:19;34.58;;;17.25;;
64857;SDS011;51335;51.148;6.950;2024-03-06T02:54:49;33.78;;;17.52;;
64857;SDS011;51335;51.148;6.950;2024-03-06T02:55:21;30.25;;;17.77;;
64857;SDS011;51335;51.148;6.950;2024-03-06T02:55:52;30.25;;;17.55;;
64857;SDS011;51335;51.148;6.950;2024-03-06T02:56:22;31.67;;;17.80;;
64857;SDS011;51335;51.148;6.950;2024-03-06T02:56:52;29.90;;;17.13;;
64857;SDS011;51335;51.148;6.950;2024-03-06T02:57:23;28.90;;;16.10;;
64857;SDS011;51335;51.148;6.950;2024-03-06T02:57:56;31.58;;;18.00;;
64857;SDS011;51335;51.148;6.950;2024-03-06T02:58:26;32.53;;;17.65;;